createdAt,value
2022-10-24T00:02:20.045Z,8.00
2022-10-24T00:22:11.200Z,8.10
2022-10-24T00:27:16.005Z,8.20
2022-10-24T00:42:12.720Z,8.10
2022-10-24T00:44:42.893Z,8.00
2022-10-24T00:47:30.006Z,8.00
2022-10-24T00:50:12.229Z,7.90
2022-10-24T00:52:49.148Z,7.80
2022-10-24T00:57:54.381Z,7.80
2022-10-24T01:00:29.144Z,7.80
2022-10-24T01:02:59.955Z,7.80
2022-10-24T01:05:37.197Z,7.80
2022-10-24T01:08:30.873Z,7.80
2022-10-24T01:11:17.619Z,7.70
2022-10-24T01:14:30.580Z,7.70
2022-10-24T01:17:16.397Z,7.70
2022-10-24T01:20:05.962Z,5.60
2022-10-24T01:22:57.073Z,7.90
2022-10-24T01:25:49.548Z,7.90
2022-10-24T01:28:50.609Z,8.10
2022-10-24T01:31:54.130Z,8.20
2022-10-24T01:35:05.864Z,8.20
2022-10-24T01:37:48.364Z,8.20
2022-10-24T01:41:05.660Z,8.30
2022-10-24T01:46:58.229Z,8.30
2022-10-24T01:49:42.348Z,8.50
2022-10-24T01:52:44.271Z,8.50
2022-10-24T01:55:41.933Z,8.60
2022-10-24T02:03:40.120Z,8.70
2022-10-24T02:06:17.046Z,8.70
2022-10-24T02:08:49.701Z,8.80
2022-10-24T02:13:59.988Z,8.90
2022-10-24T02:18:57.135Z,9.10
2022-10-24T02:21:45.913Z,9.10
2022-10-24T02:24:37.220Z,9.10
2022-10-24T02:27:29.237Z,9.30
2022-10-24T02:30:19.786Z,9.30
2022-10-24T02:33:00.231Z,9.30
2022-10-24T02:35:33.518Z,9.30
2022-10-24T02:38:28.212Z,9.40
2022-10-24T02:40:57.303Z,9.50
2022-10-24T02:43:25.867Z,9.50
2022-10-24T02:45:54.778Z,9.50
2022-10-24T02:48:25.763Z,9.50
2022-10-24T02:53:24.511Z,9.50
2022-10-24T03:37:47.229Z,9.70
2022-10-24T03:50:06.148Z,9.80
2022-10-24T04:27:07.877Z,9.80
2022-10-24T05:26:16.780Z,9.70
2022-10-24T05:51:35.679Z,9.70
2022-10-24T06:01:37.004Z,9.70
2022-10-24T06:11:32.151Z,9.70
2022-10-24T06:31:21.052Z,9.90
2022-10-24T06:41:13.931Z,10.00
2022-10-24T06:46:11.779Z,10.00
2022-10-24T06:53:35.377Z,10.10
2022-10-24T06:56:04.509Z,10.00
2022-10-24T06:58:36.528Z,10.10
2022-10-24T07:01:12.780Z,10.10
2022-10-24T07:06:13.220Z,10.10
2022-10-24T07:21:05.341Z,10.20
2022-10-24T07:23:34.229Z,10.20
2022-10-24T07:26:17.151Z,10.30
2022-10-24T07:28:46.847Z,10.30
2022-10-24T07:31:17.400Z,10.30
2022-10-24T07:36:17.994Z,10.30
2022-10-24T07:46:11.171Z,10.40
2022-10-24T07:53:57.570Z,10.50
2022-10-24T08:01:23.012Z,10.60
2022-10-24T08:06:20.772Z,10.60
2022-10-24T08:15:09.874Z,10.70
2022-10-24T08:20:06.597Z,10.70
2022-10-24T08:25:02.333Z,10.80
2022-10-24T08:27:30.498Z,10.90
2022-10-24T08:42:18.053Z,10.90
2022-10-24T08:44:47.342Z,10.90
2022-10-24T08:47:47.124Z,10.90
2022-10-24T08:50:33.769Z,11.00
2022-10-24T08:53:06.570Z,11.00
2022-10-24T08:55:55.534Z,11.00
2022-10-24T08:58:48.413Z,11.00
2022-10-24T09:01:42.039Z,13.20
2022-10-24T09:04:12.872Z,11.00
2022-10-24T09:06:40.592Z,11.10
2022-10-24T09:09:47.349Z,11.10
2022-10-24T09:12:17.153Z,11.10
2022-10-24T09:14:47.392Z,11.20
2022-10-24T09:17:35.647Z,11.20
2022-10-24T09:20:42.411Z,11.20
2022-10-24T09:23:13.749Z,11.20
2022-10-24T09:25:45.209Z,11.20
2022-10-24T09:30:40.950Z,11.20
2022-10-24T09:33:30.905Z,11.20
2022-10-24T09:36:01.140Z,11.20
2022-10-24T09:38:49.295Z,11.20
2022-10-24T09:41:36.431Z,11.30
2022-10-24T09:46:45.347Z,11.30
2022-10-24T09:49:36.013Z,11.30
2022-10-24T09:52:08.701Z,11.40
2022-10-24T09:54:37.196Z,11.40
2022-10-24T09:57:26.805Z,11.40
2022-10-24T10:00:00.946Z,11.50
2022-10-24T10:03:08.520Z,11.50
2022-10-24T10:05:46.193Z,11.50
2022-10-24T10:08:21.066Z,11.50
2022-10-24T10:11:11.437Z,11.50
2022-10-24T10:13:55.654Z,11.60
2022-10-24T10:16:48.342Z,11.60
2022-10-24T10:19:37.063Z,11.60
2022-10-24T10:22:07.193Z,11.70
2022-10-24T10:24:54.629Z,11.80
2022-10-24T10:27:40.818Z,11.80
2022-10-24T10:30:28.036Z,11.80
2022-10-24T10:33:10.343Z,11.90
2022-10-24T10:36:01.850Z,11.90
2022-10-24T10:38:52.603Z,12.10
2022-10-24T10:41:46.051Z,12.10
2022-10-24T10:44:53.017Z,11.90
2022-10-24T10:47:47.569Z,12.10
2022-10-24T10:50:42.792Z,12.20
2022-10-24T10:53:37.671Z,12.20
2022-10-24T10:56:31.689Z,12.20
2022-10-24T10:59:29.346Z,12.40
2022-10-24T11:02:36.656Z,12.50
2022-10-24T11:05:44.868Z,12.60
2022-10-24T11:08:39.882Z,12.60
2022-10-24T11:11:14.211Z,12.70
2022-10-24T11:13:46.134Z,12.90
2022-10-24T11:16:22.106Z,12.90
2022-10-24T11:18:52.405Z,13.10
2022-10-24T11:21:24.599Z,13.20
2022-10-24T11:24:31.411Z,13.30
2022-10-24T11:27:09.737Z,13.40
2022-10-24T11:30:02.877Z,13.60
2022-10-24T11:32:55.282Z,13.70
2022-10-24T11:35:33.610Z,13.90
2022-10-24T11:38:21.746Z,14.00
2022-10-24T11:40:58.612Z,14.00
2022-10-24T11:43:36.431Z,14.10
2022-10-24T11:46:23.759Z,14.20
2022-10-24T11:48:58.004Z,14.30
2022-10-24T11:51:51.815Z,14.40
2022-10-24T11:54:30.035Z,14.40
2022-10-24T11:57:03.262Z,14.40
2022-10-24T12:02:37.920Z,14.40
2022-10-24T12:05:44.860Z,14.40
2022-10-24T12:08:46.674Z,14.50
2022-10-24T12:11:54.029Z,14.50
2022-10-24T12:15:00.818Z,14.60
2022-10-24T12:17:54.256Z,14.60
2022-10-24T12:20:24.506Z,17.50
2022-10-24T12:22:53.112Z,14.60
2022-10-24T12:25:45.672Z,14.60
2022-10-24T12:28:21.758Z,14.50
2022-10-24T12:31:11.138Z,14.60
2022-10-24T12:39:05.404Z,14.60
2022-10-24T12:41:52.414Z,14.60
2022-10-24T12:44:40.165Z,14.50
2022-10-24T12:47:43.922Z,14.40
2022-10-24T12:50:50.831Z,14.30
2022-10-24T12:53:30.819Z,14.10
2022-10-24T12:56:16.845Z,14.10
2022-10-24T12:58:46.004Z,14.10
2022-10-24T13:01:34.524Z,14.00
2022-10-24T13:04:32.487Z,14.00
2022-10-24T13:07:39.364Z,13.90
2022-10-24T13:10:46.208Z,13.90
2022-10-24T13:13:54.938Z,13.80
2022-10-24T13:17:02.002Z,15.30
2022-10-24T13:19:31.347Z,13.70
2022-10-24T13:22:00.384Z,13.60
2022-10-24T13:24:47.490Z,13.40
2022-10-24T13:27:24.922Z,13.40
2022-10-24T13:30:27.778Z,13.30
2022-10-24T13:33:32.344Z,13.30
2022-10-24T13:36:18.430Z,13.30
2022-10-24T13:39:09.118Z,13.20
2022-10-24T13:41:44.739Z,13.10
2022-10-24T13:44:38.761Z,13.10
2022-10-24T13:47:31.769Z,13.10
2022-10-24T13:50:23.710Z,13.10
2022-10-24T13:53:03.777Z,13.10
2022-10-24T13:55:38.955Z,13.00
2022-10-24T13:58:26.733Z,12.70
2022-10-24T14:01:17.593Z,13.00
2022-10-24T14:03:45.699Z,13.00
2022-10-24T14:06:13.404Z,13.00
2022-10-24T14:08:56.269Z,13.00
2022-10-24T14:11:31.099Z,13.10
2022-10-24T14:14:05.751Z,13.00
2022-10-24T14:16:34.851Z,13.00
2022-10-24T14:19:27.095Z,13.10
2022-10-24T14:26:54.281Z,13.20
2022-10-24T14:29:43.496Z,13.10
2022-10-24T14:32:15.743Z,13.20
2022-10-24T14:37:26.955Z,13.20
2022-10-24T14:39:55.559Z,13.10
2022-10-24T14:44:54.853Z,13.10
2022-10-24T14:47:34.297Z,13.10
2022-10-24T14:52:48.909Z,13.10
2022-10-24T14:55:21.571Z,13.10
2022-10-24T14:57:51.341Z,10.80
2022-10-24T15:00:22.852Z,13.00
2022-10-24T15:02:51.684Z,13.00
2022-10-24T15:05:39.781Z,13.00
2022-10-24T15:08:35.029Z,13.00
2022-10-24T15:11:26.508Z,13.00
2022-10-24T15:16:39.223Z,12.90
2022-10-24T15:19:13.503Z,12.90
2022-10-24T15:21:46.652Z,12.90
2022-10-24T15:24:25.901Z,12.90
2022-10-24T15:29:23.466Z,12.90
2022-10-24T15:31:52.233Z,12.80
2022-10-24T15:34:21.837Z,12.80
2022-10-24T15:36:51.425Z,12.90
2022-10-24T15:39:22.357Z,12.80
2022-10-24T15:44:37.223Z,12.80
2022-10-24T15:54:27.705Z,12.70
2022-10-24T15:56:56.041Z,12.70
2022-10-24T16:01:57.636Z,12.70
2022-10-24T16:09:25.486Z,12.60
2022-10-24T16:14:22.342Z,12.60
2022-10-24T16:21:45.250Z,12.60
2022-10-24T16:24:13.737Z,12.60
2022-10-24T16:43:57.741Z,12.60
2022-10-24T16:46:27.038Z,12.50
2022-10-24T16:48:55.231Z,12.60
2022-10-24T16:51:32.656Z,12.60
2022-10-24T16:54:01.683Z,12.50
2022-10-24T16:56:29.660Z,12.60
2022-10-24T17:06:22.802Z,12.60
2022-10-24T17:24:11.961Z,12.80
2022-10-24T17:31:36.344Z,12.90
2022-10-24T17:36:36.659Z,12.90
2022-10-24T17:39:13.537Z,12.90
2022-10-24T17:41:41.554Z,12.90
2022-10-24T17:44:16.741Z,12.90
2022-10-24T17:46:44.134Z,11.40
2022-10-24T17:54:15.700Z,12.90
2022-10-24T17:56:43.320Z,12.90
2022-10-24T18:18:56.674Z,12.80
2022-10-24T18:21:25.373Z,12.80
2022-10-24T18:23:53.415Z,12.80
2022-10-24T18:26:23.408Z,12.80
2022-10-24T18:28:53.045Z,12.80
2022-10-24T18:31:24.652Z,12.80
2022-10-24T18:36:22.622Z,12.80
2022-10-24T18:41:46.963Z,12.70
2022-10-24T18:44:42.520Z,12.80
2022-10-24T18:47:16.018Z,12.70
2022-10-24T18:49:43.733Z,12.70
2022-10-24T18:52:37.743Z,12.70
2022-10-24T18:55:17.124Z,12.70
2022-10-24T19:00:15.801Z,12.70
2022-10-24T19:03:14.181Z,12.70
2022-10-24T19:05:55.359Z,12.80
2022-10-24T19:08:25.448Z,12.70
2022-10-24T19:10:55.268Z,12.70
2022-10-24T19:13:25.127Z,12.80
2022-10-24T19:15:57.894Z,12.80
2022-10-24T19:18:27.145Z,12.70
2022-10-24T19:28:18.314Z,12.70
2022-10-24T19:30:47.164Z,12.70
2022-10-24T19:33:15.522Z,12.70
2022-10-24T19:35:47.442Z,12.60
2022-10-24T19:38:15.805Z,12.60
2022-10-24T19:40:52.961Z,12.60
2022-10-24T19:43:21.377Z,12.50
2022-10-24T19:48:37.849Z,12.50
2022-10-24T19:51:06.612Z,12.40
2022-10-24T19:53:35.977Z,12.40
2022-10-24T19:56:06.576Z,12.70
2022-10-24T20:01:10.983Z,12.30
2022-10-24T20:03:40.483Z,12.30
2022-10-24T20:06:08.280Z,12.20
2022-10-24T20:11:04.618Z,12.20
2022-10-24T20:13:32.173Z,12.20
2022-10-24T20:16:03.076Z,12.10
2022-10-24T20:20:59.027Z,12.10
2022-10-24T20:26:13.345Z,12.10
2022-10-24T20:28:43.576Z,12.00
2022-10-24T20:31:31.885Z,12.10
2022-10-24T20:34:07.963Z,12.10
2022-10-24T20:36:37.943Z,12.20
2022-10-24T20:56:22.620Z,12.30
2022-10-24T20:58:51.102Z,12.30
2022-10-24T21:01:22.618Z,12.30
2022-10-24T21:03:51.224Z,12.30
2022-10-24T21:06:39.564Z,12.20
2022-10-24T21:09:07.477Z,12.10
2022-10-24T21:11:35.583Z,12.20
2022-10-24T21:14:06.565Z,12.10
2022-10-24T21:16:34.858Z,12.20
2022-10-24T21:24:02.446Z,12.10
2022-10-24T21:26:33.344Z,12.00
2022-10-24T21:31:50.320Z,12.00
2022-10-24T21:34:18.212Z,11.90
2022-10-24T21:39:14.106Z,11.90
2022-10-24T21:51:36.338Z,12.00
2022-10-24T21:54:06.881Z,11.90
2022-10-24T21:56:36.933Z,12.00
2022-10-24T21:59:06.272Z,12.10
2022-10-24T22:01:36.141Z,12.10
2022-10-24T22:04:05.486Z,12.10
2022-10-24T22:06:33.998Z,12.10
2022-10-24T22:11:30.947Z,12.10
2022-10-24T22:13:58.615Z,12.00
2022-10-24T22:16:27.979Z,12.10
2022-10-24T22:21:43.463Z,12.10
2022-10-24T22:24:13.916Z,12.10
2022-10-24T22:26:42.067Z,12.10
2022-10-24T22:29:10.976Z,12.10
2022-10-24T22:34:06.163Z,12.00
2022-10-24T22:37:13.152Z,11.90
2022-10-24T22:39:40.996Z,11.80
2022-10-24T22:42:12.415Z,11.70
2022-10-24T22:47:35.426Z,11.70
2022-10-24T22:50:42.205Z,11.70
2022-10-24T22:53:13.138Z,11.80
2022-10-24T22:55:54.654Z,11.80
2022-10-24T23:00:54.769Z,11.80
2022-10-24T23:03:49.584Z,11.80
2022-10-24T23:06:27.057Z,11.90
2022-10-24T23:16:42.604Z,12.00
2022-10-24T23:19:28.365Z,11.90
2022-10-24T23:22:35.217Z,11.90
2022-10-24T23:27:52.259Z,11.90
2022-10-24T23:30:23.210Z,11.80
2022-10-24T23:32:51.610Z,11.80
2022-10-24T23:35:20.437Z,11.70
2022-10-24T23:37:50.077Z,11.70
2022-10-24T23:40:37.259Z,11.70
2022-10-24T23:43:05.322Z,11.60
2022-10-24T23:45:43.955Z,11.60
2022-10-24T23:48:38.961Z,11.50
2022-10-24T23:51:31.287Z,11.50
2022-10-24T23:56:28.631Z,11.40
2022-10-24T23:58:56.313Z,11.40
